createdAt,value
2022-10-06T00:02:22.465Z,15.02
2022-10-06T00:04:52.828Z,15.06
2022-10-06T00:07:23.311Z,15.00
2022-10-06T00:09:53.700Z,15.12
2022-10-06T00:12:24.286Z,15.08
2022-10-06T00:14:54.658Z,15.02
2022-10-06T00:17:25.146Z,15.05
2022-10-06T00:19:57.862Z,15.13
2022-10-06T00:22:37.063Z,15.09
2022-10-06T00:25:09.635Z,15.08
2022-10-06T00:27:42.720Z,15.04
2022-10-06T00:30:15.851Z,14.96
2022-10-06T00:33:03.551Z,15.02
2022-10-06T00:35:35.682Z,15.10
2022-10-06T00:38:06.245Z,15.21
2022-10-06T00:40:38.090Z,15.13
2022-10-06T00:43:10.047Z,15.13
2022-10-06T00:45:45.064Z,15.24
2022-10-06T00:48:18.659Z,15.27
2022-10-06T00:50:49.533Z,15.31
2022-10-06T00:53:19.973Z,15.34
2022-10-06T00:55:50.710Z,15.36
2022-10-06T00:58:22.136Z,15.32
2022-10-06T01:00:54.269Z,15.44
2022-10-06T01:03:30.658Z,15.37
2022-10-06T01:06:02.040Z,15.51
2022-10-06T01:08:33.171Z,15.50
2022-10-06T01:11:03.770Z,15.60
2022-10-06T01:13:34.880Z,15.73
2022-10-06T01:16:22.218Z,15.63
2022-10-06T01:18:55.782Z,15.70
2022-10-06T01:21:32.175Z,15.76
2022-10-06T01:24:05.876Z,15.68
2022-10-06T01:26:39.301Z,15.73
2022-10-06T01:29:10.309Z,15.72
2022-10-06T01:31:41.166Z,15.84
2022-10-06T01:34:11.517Z,15.86
2022-10-06T01:36:43.520Z,15.78
2022-10-06T01:39:13.936Z,15.80
2022-10-06T01:41:46.003Z,15.76
2022-10-06T01:44:16.402Z,15.70
2022-10-06T01:46:46.827Z,15.66
2022-10-06T01:49:17.280Z,15.64
2022-10-06T01:51:48.366Z,15.57
2022-10-06T01:54:18.760Z,15.61
2022-10-06T01:56:49.185Z,15.63
2022-10-06T01:59:22.586Z,15.55
2022-10-06T02:01:53.907Z,15.44
2022-10-06T02:04:24.349Z,15.39
2022-10-06T02:06:55.451Z,15.32
2022-10-06T02:09:26.052Z,15.32
2022-10-06T02:11:56.411Z,15.26
2022-10-06T02:14:27.014Z,15.25
2022-10-06T02:16:57.407Z,15.30
2022-10-06T02:19:27.917Z,15.36
2022-10-06T02:21:58.654Z,15.23
2022-10-06T02:24:30.198Z,15.24
2022-10-06T02:27:00.673Z,15.32
2022-10-06T02:29:31.139Z,15.34
2022-10-06T02:32:01.540Z,15.40
2022-10-06T02:34:31.910Z,15.35
2022-10-06T02:37:02.474Z,15.35
2022-10-06T02:39:32.846Z,15.23
2022-10-06T02:42:04.520Z,15.20
2022-10-06T02:44:34.959Z,15.26
2022-10-06T02:47:05.351Z,15.19
2022-10-06T02:49:35.718Z,15.14
2022-10-06T02:52:06.036Z,15.19
2022-10-06T02:54:36.795Z,15.20
2022-10-06T02:57:09.336Z,15.34
2022-10-06T02:59:39.728Z,15.37
2022-10-06T03:02:10.651Z,15.42
2022-10-06T03:04:41.177Z,15.47
2022-10-06T03:07:11.650Z,15.44
2022-10-06T03:09:42.405Z,15.51
2022-10-06T03:12:12.938Z,15.52
2022-10-06T03:14:43.246Z,15.61
2022-10-06T03:17:13.553Z,15.62
2022-10-06T03:19:43.868Z,15.57
2022-10-06T03:22:14.381Z,15.60
2022-10-06T03:24:44.841Z,15.62
2022-10-06T03:27:16.005Z,15.74
2022-10-06T03:29:46.381Z,15.73
2022-10-06T03:32:16.704Z,15.78
2022-10-06T03:34:47.660Z,15.77
2022-10-06T03:37:19.068Z,15.84
2022-10-06T03:39:49.460Z,15.92
2022-10-06T03:42:19.847Z,15.90
2022-10-06T03:44:50.315Z,15.92
2022-10-06T03:47:20.717Z,15.84
2022-10-06T03:49:51.145Z,15.90
2022-10-06T03:52:25.907Z,15.84
2022-10-06T03:54:53.585Z,15.78
2022-10-06T03:57:24.019Z,15.84
2022-10-06T03:59:54.966Z,15.84
2022-10-06T04:02:25.479Z,15.85
2022-10-06T04:04:56.323Z,15.81
2022-10-06T04:07:26.784Z,15.90
2022-10-06T04:09:57.253Z,15.84
2022-10-06T04:12:27.739Z,15.82
2022-10-06T04:15:00.215Z,15.78
2022-10-06T04:17:30.369Z,15.76
2022-10-06T04:20:00.806Z,15.84
2022-10-06T04:22:31.231Z,15.66
2022-10-06T04:25:01.619Z,15.68
2022-10-06T04:27:32.050Z,15.65
2022-10-06T04:30:02.424Z,15.67
2022-10-06T04:32:32.927Z,15.66
2022-10-06T04:35:03.408Z,15.66
2022-10-06T04:37:33.912Z,15.76
2022-10-06T04:40:05.090Z,15.80
2022-10-06T04:42:36.390Z,15.76
2022-10-06T04:45:07.727Z,15.80
2022-10-06T04:47:40.196Z,15.72
2022-10-06T04:50:11.119Z,15.85
2022-10-06T04:52:41.525Z,15.74
2022-10-06T04:55:11.761Z,15.74
2022-10-06T04:57:42.115Z,15.72
2022-10-06T05:00:25.145Z,15.68
2022-10-06T05:02:56.280Z,15.58
2022-10-06T05:05:26.536Z,15.59
2022-10-06T05:07:57.035Z,15.60
2022-10-06T05:10:27.971Z,15.52
2022-10-06T05:12:58.371Z,15.45
2022-10-06T05:15:29.159Z,15.51
2022-10-06T05:17:59.518Z,15.45
2022-10-06T05:20:29.888Z,15.41
2022-10-06T05:23:00.334Z,15.40
2022-10-06T05:25:30.655Z,15.42
2022-10-06T05:28:01.150Z,15.56
2022-10-06T05:30:31.569Z,15.34
2022-10-06T05:33:01.955Z,15.33
2022-10-06T05:35:32.402Z,15.28
2022-10-06T05:38:02.902Z,15.17
2022-10-06T05:40:33.303Z,15.17
2022-10-06T05:43:05.274Z,15.18
2022-10-06T05:45:35.674Z,15.08
2022-10-06T05:48:06.074Z,15.14
2022-10-06T05:50:36.455Z,14.96
2022-10-06T05:53:06.711Z,14.91
2022-10-06T05:55:37.299Z,14.90
2022-10-06T05:58:07.629Z,14.80
2022-10-06T06:00:38.020Z,14.84
2022-10-06T06:03:10.481Z,14.72
2022-10-06T06:05:43.980Z,14.70
2022-10-06T06:08:14.383Z,14.62
2022-10-06T06:10:44.772Z,14.66
2022-10-06T06:13:23.266Z,14.52
2022-10-06T06:16:04.048Z,14.54
2022-10-06T06:18:38.465Z,14.40
2022-10-06T06:21:10.948Z,14.34
2022-10-06T06:23:45.873Z,14.34
2022-10-06T06:26:23.211Z,14.42
2022-10-06T06:28:55.322Z,14.41
2022-10-06T06:31:28.006Z,14.35
2022-10-06T06:34:01.228Z,14.48
2022-10-06T06:36:37.275Z,14.44
2022-10-06T06:39:10.191Z,14.38
2022-10-06T06:41:44.667Z,14.37
2022-10-06T06:44:15.429Z,14.32
2022-10-06T06:46:48.007Z,14.37
2022-10-06T06:49:20.428Z,14.44
2022-10-06T06:51:50.998Z,14.57
2022-10-06T06:54:22.300Z,14.54
2022-10-06T06:56:52.577Z,14.61
2022-10-06T06:59:23.061Z,14.72
2022-10-06T07:01:57.820Z,14.62
2022-10-06T07:04:28.305Z,14.62
2022-10-06T07:06:58.818Z,14.53
2022-10-06T07:09:29.664Z,14.44
2022-10-06T07:11:59.957Z,14.44
2022-10-06T07:14:32.077Z,14.41
2022-10-06T07:17:20.308Z,14.45
2022-10-06T07:19:58.183Z,14.46
2022-10-06T07:22:47.384Z,14.47
2022-10-06T07:25:25.405Z,14.51
2022-10-06T07:27:52.953Z,14.50
2022-10-06T07:30:26.341Z,14.64
2022-10-06T07:32:56.803Z,14.65
2022-10-06T07:35:27.393Z,14.79
2022-10-06T07:38:02.011Z,14.82
2022-10-06T07:40:33.069Z,14.99
2022-10-06T07:43:03.540Z,14.92
2022-10-06T07:45:41.997Z,14.98
2022-10-06T07:48:15.060Z,15.08
2022-10-06T07:50:48.991Z,14.90
2022-10-06T07:53:20.516Z,14.89
2022-10-06T07:55:52.017Z,15.00
2022-10-06T07:58:24.079Z,15.15
2022-10-06T08:00:54.457Z,15.03
2022-10-06T08:03:25.250Z,15.08
2022-10-06T08:06:00.914Z,15.12
2022-10-06T08:08:34.990Z,15.14
2022-10-06T08:11:06.458Z,15.25
2022-10-06T08:13:39.739Z,15.15
2022-10-06T08:16:16.424Z,15.06
2022-10-06T08:18:53.253Z,15.18
2022-10-06T08:21:32.003Z,15.30
2022-10-06T08:24:02.384Z,15.26
2022-10-06T08:26:34.490Z,15.24
2022-10-06T08:29:04.858Z,15.16
2022-10-06T08:31:35.262Z,15.12
2022-10-06T08:34:11.504Z,15.34
2022-10-06T08:36:39.580Z,15.12
2022-10-06T08:39:10.007Z,15.17
2022-10-06T08:41:44.940Z,15.09
2022-10-06T08:44:20.999Z,15.10
2022-10-06T08:47:03.709Z,15.22
2022-10-06T08:49:39.633Z,15.48
2022-10-06T08:52:35.803Z,15.51
2022-10-06T08:55:21.267Z,15.71
2022-10-06T08:58:03.444Z,15.69
2022-10-06T09:00:34.457Z,15.67
2022-10-06T09:03:05.777Z,15.99
2022-10-06T09:05:37.128Z,16.33
2022-10-06T09:08:36.141Z,16.04
2022-10-06T09:11:18.522Z,16.18
2022-10-06T09:13:53.363Z,16.39
2022-10-06T09:16:29.713Z,16.48
2022-10-06T09:19:09.574Z,16.66
2022-10-06T09:21:45.930Z,16.66
2022-10-06T09:24:19.275Z,16.94
2022-10-06T09:26:52.014Z,16.88
2022-10-06T09:29:22.407Z,16.77
2022-10-06T09:31:52.861Z,16.92
2022-10-06T09:34:42.901Z,17.83
2022-10-06T09:37:14.316Z,17.34
2022-10-06T09:39:49.422Z,16.76
2022-10-06T09:42:25.707Z,17.64
2022-10-06T09:45:06.042Z,17.14
2022-10-06T09:47:39.720Z,16.88
2022-10-06T09:50:30.476Z,17.14
2022-10-06T09:53:06.413Z,16.91
2022-10-06T09:55:42.990Z,16.96
2022-10-06T09:58:36.057Z,17.17
2022-10-06T10:01:14.225Z,16.80
2022-10-06T10:04:08.699Z,16.68
2022-10-06T10:06:29.566Z,16.64
2022-10-06T10:09:22.413Z,16.62
2022-10-06T10:12:32.019Z,16.54
2022-10-06T10:15:05.228Z,16.54
2022-10-06T10:17:47.085Z,16.59
2022-10-06T10:20:34.384Z,16.76
2022-10-06T10:23:19.869Z,16.75
2022-10-06T10:26:05.357Z,16.76
2022-10-06T10:28:51.691Z,16.86
2022-10-06T10:31:34.204Z,16.98
2022-10-06T10:34:23.829Z,17.05
2022-10-06T10:36:45.512Z,16.79
2022-10-06T10:39:18.958Z,17.10
2022-10-06T10:41:52.689Z,17.08
2022-10-06T10:44:31.952Z,16.89
2022-10-06T10:47:13.880Z,17.10
2022-10-06T10:49:47.341Z,17.25
2022-10-06T10:52:20.750Z,17.26
2022-10-06T10:54:57.063Z,17.54
2022-10-06T10:57:30.686Z,17.48
2022-10-06T11:00:22.842Z,17.58
2022-10-06T11:02:56.627Z,17.34
2022-10-06T11:05:52.899Z,17.41
2022-10-06T11:08:38.090Z,17.35
2022-10-06T11:11:14.472Z,17.26
2022-10-06T11:13:50.579Z,17.72
2022-10-06T11:16:44.658Z,18.12
2022-10-06T11:19:18.376Z,18.10
2022-10-06T11:22:00.743Z,18.10
2022-10-06T11:24:53.637Z,18.50
2022-10-06T11:27:45.382Z,19.09
2022-10-06T11:30:25.338Z,21.04
2022-10-06T11:33:14.246Z,21.41
2022-10-06T11:35:46.662Z,21.56
2022-10-06T11:38:29.200Z,21.71
2022-10-06T11:41:14.049Z,23.12
2022-10-06T11:44:04.183Z,22.97
2022-10-06T11:46:41.310Z,22.64
2022-10-06T11:49:32.682Z,22.86
2022-10-06T11:52:14.714Z,24.16
2022-10-06T11:54:48.563Z,24.74
2022-10-06T11:57:31.210Z,25.18
2022-10-06T12:00:18.603Z,24.98
2022-10-06T12:02:49.124Z,24.22
2022-10-06T12:05:54.665Z,22.24
2022-10-06T12:07:58.020Z,20.64
2022-10-06T12:10:34.030Z,20.33
2022-10-06T12:13:51.373Z,20.11
2022-10-06T12:18:51.667Z,19.57
2022-10-06T12:21:50.225Z,19.49
2022-10-06T12:24:32.456Z,19.15
2022-10-06T12:27:25.979Z,18.30
2022-10-06T12:30:08.893Z,18.18
2022-10-06T12:33:00.189Z,18.45
2022-10-06T12:35:39.906Z,17.53
2022-10-06T12:38:34.743Z,17.64
2022-10-06T12:41:06.652Z,17.66
2022-10-06T12:43:55.200Z,17.71
2022-10-06T12:46:28.780Z,17.80
2022-10-06T12:49:05.390Z,18.12
2022-10-06T12:51:44.507Z,18.39
2022-10-06T12:54:36.454Z,18.52
2022-10-06T12:57:15.853Z,18.22
2022-10-06T12:59:46.931Z,17.92
2022-10-06T13:02:25.916Z,17.60
2022-10-06T13:05:06.181Z,17.25
2022-10-06T13:07:39.654Z,17.47
2022-10-06T13:10:21.989Z,17.50
2022-10-06T13:12:52.673Z,17.43
2022-10-06T13:15:35.052Z,17.49
2022-10-06T13:18:15.975Z,17.59
2022-10-06T13:20:55.250Z,17.75
2022-10-06T13:23:34.315Z,17.60
2022-10-06T13:26:10.115Z,17.68
2022-10-06T13:28:46.573Z,17.67
2022-10-06T13:31:27.283Z,17.74
2022-10-06T13:34:12.667Z,17.42
2022-10-06T13:36:46.686Z,17.48
2022-10-06T13:39:19.429Z,17.61
2022-10-06T13:42:07.233Z,17.68
2022-10-06T13:44:49.409Z,17.60
2022-10-06T13:47:22.414Z,17.47
2022-10-06T13:50:05.851Z,17.46
2022-10-06T13:52:39.922Z,17.60
2022-10-06T13:55:27.453Z,17.59
2022-10-06T13:58:06.743Z,17.48
2022-10-06T14:00:56.859Z,17.38
2022-10-06T14:06:16.907Z,17.34
2022-10-06T14:08:50.761Z,16.98
2022-10-06T14:11:29.634Z,16.86
2022-10-06T14:14:03.201Z,17.00
2022-10-06T14:16:34.126Z,17.10
2022-10-06T14:19:07.015Z,17.14
2022-10-06T14:21:45.762Z,17.17
2022-10-06T14:24:26.050Z,17.23
2022-10-06T14:27:01.954Z,17.16
2022-10-06T14:29:34.061Z,17.22
2022-10-06T14:32:09.526Z,17.21
2022-10-06T14:34:42.026Z,17.15
2022-10-06T14:37:14.783Z,17.13
2022-10-06T14:39:46.612Z,17.12
2022-10-06T14:42:17.423Z,17.12
2022-10-06T14:44:48.130Z,17.37
2022-10-06T14:47:18.528Z,17.37
2022-10-06T14:49:49.056Z,17.26
2022-10-06T14:52:19.586Z,17.16
2022-10-06T14:54:50.787Z,17.21
2022-10-06T14:57:21.759Z,17.12
2022-10-06T14:59:52.065Z,17.08
2022-10-06T15:02:22.787Z,17.03
2022-10-06T15:04:53.148Z,16.90
2022-10-06T15:07:41.592Z,16.98
2022-10-06T15:10:11.972Z,16.81
2022-10-06T15:12:42.363Z,16.97
2022-10-06T15:15:12.671Z,16.84
2022-10-06T15:17:42.996Z,16.86
2022-10-06T15:20:14.539Z,16.88
2022-10-06T15:22:45.413Z,16.74
2022-10-06T15:25:33.732Z,16.66
2022-10-06T15:28:23.634Z,16.66
2022-10-06T15:30:54.445Z,16.61
2022-10-06T15:33:25.082Z,16.65
2022-10-06T15:36:19.101Z,16.53
2022-10-06T15:38:49.536Z,16.60
2022-10-06T15:41:20.675Z,16.60
2022-10-06T15:44:00.419Z,16.46
2022-10-06T15:46:37.013Z,16.45
2022-10-06T15:49:12.264Z,16.37
2022-10-06T15:51:48.714Z,16.25
2022-10-06T15:54:21.687Z,16.25
2022-10-06T15:56:59.930Z,16.17
2022-10-06T15:59:32.653Z,16.19
2022-10-06T16:02:06.876Z,16.26
2022-10-06T16:04:43.214Z,16.09
2022-10-06T16:07:18.576Z,16.23
2022-10-06T16:09:51.600Z,16.10
2022-10-06T16:12:25.026Z,15.96
2022-10-06T16:14:55.773Z,15.94
2022-10-06T16:17:26.073Z,15.95
2022-10-06T16:19:56.656Z,15.98
2022-10-06T16:22:27.137Z,15.84
2022-10-06T16:24:57.535Z,15.82
2022-10-06T16:27:31.313Z,15.75
2022-10-06T16:29:59.929Z,15.71
2022-10-06T16:32:30.295Z,15.78
2022-10-06T16:35:00.695Z,15.66
2022-10-06T16:37:31.096Z,15.57
2022-10-06T16:40:01.509Z,15.61
2022-10-06T16:42:31.904Z,15.50
2022-10-06T16:45:02.284Z,15.45
2022-10-06T16:47:32.598Z,15.47
2022-10-06T16:50:02.953Z,15.43
2022-10-06T16:52:33.281Z,15.38
2022-10-06T16:55:03.709Z,15.38
2022-10-06T16:57:34.067Z,15.32
2022-10-06T17:00:05.834Z,15.34
2022-10-06T17:02:36.793Z,15.23
2022-10-06T17:05:07.767Z,15.16
2022-10-06T17:07:38.165Z,15.16
2022-10-06T17:13:02.802Z,15.12
2022-10-06T17:15:33.747Z,15.03
2022-10-06T17:18:04.365Z,14.98
2022-10-06T17:20:34.750Z,14.98
2022-10-06T17:23:04.989Z,14.90
2022-10-06T17:25:35.778Z,14.83
2022-10-06T17:28:07.277Z,14.90
2022-10-06T17:30:37.739Z,14.81
2022-10-06T17:33:08.405Z,14.86
2022-10-06T17:35:40.332Z,14.76
2022-10-06T17:38:10.754Z,14.67
2022-10-06T17:40:46.876Z,14.63
2022-10-06T17:43:17.291Z,14.56
2022-10-06T17:45:49.524Z,14.48
2022-10-06T17:48:19.869Z,14.48
2022-10-06T17:50:59.752Z,14.51
2022-10-06T17:53:30.215Z,14.52
2022-10-06T17:56:08.518Z,14.50
2022-10-06T17:58:41.823Z,14.42
2022-10-06T18:01:20.110Z,14.39
2022-10-06T18:03:52.763Z,14.31
2022-10-06T18:06:26.848Z,14.30
2022-10-06T18:09:00.147Z,14.28
2022-10-06T18:11:38.686Z,14.32
2022-10-06T18:14:14.279Z,14.28
2022-10-06T18:17:00.658Z,14.32
2022-10-06T18:19:35.750Z,14.23
2022-10-06T18:22:09.833Z,14.25
2022-10-06T18:24:40.775Z,14.18
2022-10-06T18:27:12.790Z,14.15
2022-10-06T18:29:43.198Z,14.04
2022-10-06T18:37:20.456Z,13.92
2022-10-06T18:39:50.803Z,13.89
2022-10-06T18:42:21.685Z,13.79
2022-10-06T18:45:10.271Z,13.66
2022-10-06T18:47:58.538Z,13.64
2022-10-06T18:50:28.930Z,13.58
2022-10-06T18:52:59.318Z,13.55
2022-10-06T18:55:33.166Z,13.58
2022-10-06T18:58:06.360Z,13.53
2022-10-06T19:00:36.779Z,13.56
2022-10-06T19:03:07.171Z,13.46
2022-10-06T19:05:37.613Z,13.42
2022-10-06T19:08:09.257Z,13.40
2022-10-06T19:10:41.217Z,13.35
2022-10-06T19:13:11.564Z,13.34
2022-10-06T19:15:45.246Z,13.26
2022-10-06T19:18:15.620Z,13.20
2022-10-06T19:20:53.423Z,13.20
2022-10-06T19:23:23.720Z,13.19
2022-10-06T19:26:01.189Z,13.19
2022-10-06T19:28:33.520Z,13.19
2022-10-06T19:31:07.172Z,13.09
2022-10-06T19:33:39.778Z,13.09
2022-10-06T19:36:13.955Z,13.00
2022-10-06T19:38:46.177Z,12.97
2022-10-06T19:41:34.871Z,12.93
2022-10-06T19:44:05.245Z,12.87
2022-10-06T19:46:37.530Z,12.84
2022-10-06T19:49:08.161Z,12.83
2022-10-06T19:51:41.237Z,12.80
2022-10-06T19:54:13.676Z,12.83
2022-10-06T19:56:45.875Z,12.79
2022-10-06T19:59:18.501Z,12.72
2022-10-06T20:01:50.149Z,12.76
2022-10-06T20:04:23.001Z,12.71
2022-10-06T20:06:54.238Z,12.74
2022-10-06T20:09:24.940Z,12.80
2022-10-06T20:11:55.700Z,12.77
2022-10-06T20:14:26.690Z,12.71
2022-10-06T20:16:58.118Z,12.68
2022-10-06T20:19:28.469Z,12.69
2022-10-06T20:21:58.867Z,12.66
2022-10-06T20:24:30.967Z,12.61
2022-10-06T20:27:01.361Z,12.62
2022-10-06T20:29:32.326Z,12.60
2022-10-06T20:32:04.593Z,12.50
2022-10-06T20:34:35.267Z,12.50
2022-10-06T20:37:06.558Z,12.49
2022-10-06T20:39:54.903Z,12.41
2022-10-06T20:42:27.906Z,12.36
2022-10-06T20:44:58.298Z,12.33
2022-10-06T20:47:29.166Z,12.30
2022-10-06T20:49:59.474Z,12.16
2022-10-06T20:52:30.153Z,12.14
2022-10-06T20:55:00.539Z,12.09
2022-10-06T20:57:33.835Z,12.11
2022-10-06T21:00:03.116Z,12.04
2022-10-06T21:02:34.119Z,11.94
2022-10-06T21:05:04.606Z,11.96
2022-10-06T21:07:35.120Z,11.90
2022-10-06T21:10:06.112Z,11.95
2022-10-06T21:12:36.725Z,11.87
2022-10-06T21:15:07.778Z,11.86
2022-10-06T21:17:39.490Z,11.88
2022-10-06T21:20:10.372Z,11.80
2022-10-06T21:22:40.889Z,11.84
2022-10-06T21:25:11.259Z,11.77
2022-10-06T21:27:41.976Z,11.72
2022-10-06T21:30:13.542Z,11.66
2022-10-06T21:32:44.077Z,11.66
2022-10-06T21:35:14.472Z,11.62
2022-10-06T21:37:45.811Z,11.60
2022-10-06T21:40:16.649Z,11.58
2022-10-06T21:42:47.155Z,11.62
2022-10-06T21:45:17.659Z,11.66
2022-10-06T21:47:48.063Z,11.64
2022-10-06T21:50:18.673Z,11.57
2022-10-06T21:52:49.076Z,11.53
2022-10-06T21:55:19.505Z,11.46
2022-10-06T21:57:50.009Z,11.47
2022-10-06T22:00:20.427Z,11.40
2022-10-06T22:02:50.804Z,11.42
2022-10-06T22:05:22.736Z,11.38
2022-10-06T22:07:53.244Z,11.37
2022-10-06T22:10:25.442Z,11.33
2022-10-06T22:12:55.852Z,11.30
2022-10-06T22:15:26.372Z,11.32
2022-10-06T22:17:56.710Z,11.26
2022-10-06T22:20:27.139Z,11.24
2022-10-06T22:23:00.322Z,11.21
2022-10-06T22:25:30.472Z,11.17
2022-10-06T22:28:00.849Z,11.18
2022-10-06T22:30:31.207Z,11.20
2022-10-06T22:33:01.558Z,11.15
2022-10-06T22:35:31.978Z,11.12
2022-10-06T22:38:02.424Z,11.07
2022-10-06T22:40:32.896Z,11.02
2022-10-06T22:43:03.232Z,10.99
2022-10-06T22:45:38.726Z,11.01
2022-10-06T22:48:08.916Z,10.98
2022-10-06T22:50:39.239Z,10.95
2022-10-06T22:53:09.656Z,10.95
2022-10-06T22:55:40.060Z,10.88
2022-10-06T22:58:10.850Z,10.86
2022-10-06T23:00:41.877Z,10.88
2022-10-06T23:03:13.011Z,10.86
2022-10-06T23:05:43.398Z,10.84
2022-10-06T23:08:13.800Z,10.78
2022-10-06T23:10:44.203Z,10.80
2022-10-06T23:13:14.676Z,10.70
2022-10-06T23:15:45.076Z,10.73
2022-10-06T23:18:16.168Z,10.79
2022-10-06T23:20:46.601Z,10.71
2022-10-06T23:23:16.998Z,10.68
2022-10-06T23:25:47.410Z,10.64
2022-10-06T23:28:17.920Z,10.62
2022-10-06T23:30:48.358Z,10.64
2022-10-06T23:33:18.786Z,10.68
2022-10-06T23:35:58.036Z,10.62
2022-10-06T23:38:28.849Z,10.59
2022-10-06T23:40:59.511Z,10.54
2022-10-06T23:43:30.079Z,10.56
2022-10-06T23:46:00.798Z,10.48
2022-10-06T23:48:31.253Z,10.47
2022-10-06T23:51:04.174Z,10.44
2022-10-06T23:53:35.844Z,10.38
2022-10-06T23:56:07.245Z,10.35
2022-10-06T23:58:38.163Z,10.35
